New Castle, PA

1:56 PM EST on January 26, 2015 (GMT -0500)
New Castle Municipal | Change Station
CLOSE
Current Station
Airport
Location: New Castle,
Elevation: 1073 ft
Nearby Weather Stations

Elev 1073 ft 41.03 °N, 80.41 °W | Updated 13 minutes ago

Light Snow
Light Snow Mist
25 °F
Feels Like 16 °F
N
8
Wind Variable Wind from North

Today
High -- | Low -- °F
--% Chance of Precip.
Yesterday
High -- | Low -- °F
Precip. -- in
7:37 AM 5:30 PM
Waxing Crescent, 45% visible
Pressure 29.75 in
Visibility 1.8 miles
Clouds Few 200 ft
Overcast 1400 ft
Windchill 16 °F
Dew Point 19 °F
Humidity 80%
Rainfall 0.06 in
Snow Depth Not available.
UV 1 out of 12
Pollen .10 out of 12
Air Quality Not available.
Flu Activity Not available.
SPECI KUCP 261843Z AUTO 35007KT 1 3/4SM -SN BR FEW002 OVC014 M04/M07 A2975 RMK AO2 OVC V BKN P0000

More Conditions Fewer Conditions

Pressure 29.75 in
Visibility 1.8 miles
Clouds Few 200 ft
Overcast 1400 ft
Windchill 16 °F
Dew Point 19 °F
Humidity 80%
Rainfall 0.06 in
Snow Depth Not available.
UV 1 out of 12
Pollen .10 out of 12
Air Quality Not available.
Flu Activity Not available.
SPECI KUCP 261843Z AUTO 35007KT 1 3/4SM -SN BR FEW002 OVC014 M04/M07 A2975 RMK AO2 OVC V BKN P0000

More Conditions Fewer Conditions

10-Day Weather Forecast

Almanac

Astronomy

Jan. 26, 2015 Rise Set
Actual Time
Civil Twilight
Nautical Twilight
Astronomical Twilight
Moon
Length of Visible Light
Length of Day
Tomorrow will be .
, % of the Moon is Illuminated

Today's Extremes

State Highs State Lows

Community

WunderPhotos

Upload Photos

1,790,312 photos uploaded!

WunderBlogs® & News

Nearby

Air Quality

  Air Quality AQ Index Pollutant
Not available.

Snow Depth

Station Depth Elevation

Earthquake Activity

City Distance Mag. Time & Date
Minimum magnitude displayed is 2.5.

Coastal Water Temperatures

Place Temperature

Nearby Weather Stations